Terminal Aerodrome Forecast
Issued by NWS Cleveland, OH

Home | Current Version | Previous Version | Text Only | Print | Product List | Glossary On
Versions: 1 2 3 4 5 6 7 8 9 10 11 12 13 14 15 16 17 18 19 20 21 22 23
000
FTUS41 KCLE 190559 CCA
TAFERI
TAF COR
KERI 190559Z 1906/2006 02006KT P6SM VCSH OVC010
     FM190800 36008KT 4SM -SN OVC005
      TEMPO 1908/1912 1 1/2SM -SN OVC008
     FM191300 34010G20KT 2SM -SHSN OVC008
     FM191500 33015G25KT P6SM OVC015
     FM191900 31018G28KT P6SM OVC035=

USA.gov is the U.S. government's official web portal to all federal, state and local government web resources and services.